Terminal Aerodrome Forecast
Issued by NWS

Home | Current Version | Previous Version | Text Only | Print | Product List | Glossary On
Versions: 1 2 3 4 5 6 7 8 9 10 11 12
000
FTUS44 KEPZ 271100
TAFDMN
TAF
KDMN 271120Z 2712/2812 VRB05KT P6SM BKN070
     FM271700 22004KT P6SM SCT070
     FM280400 29005KT P6SM BKN250=

USA.gov is the U.S. government's official web portal to all federal, state and local government web resources and services.